Time;durP1;ratioP1;P1;durP2;ratioP2;P2;SDS_P1;SDS_P2;PMS_P1;PMS_P2;Temp;Humidity;BMP_temperature;BMP_pressure;BME280_temperature;BME280_humidity;BME280_pressure;Samples;Min_cycle;Max_cycle;Signal;HPM_P1;HPM_P2
2023/03/04 00:02:22;;;;;;;8.93;7.45;;;;;;;;;;5049003;28;20927;-48
2023/03/04 00:04:48;;;;;;;9.45;7.43;;;;;;;;;;5062289;28;20266;-48
2023/03/04 00:07:15;;;;;;;9.65;7.03;;;;;;;;;;5054855;28;20536;-48
2023/03/04 00:09:42;;;;;;;9.43;7.15;;;;;;;;;;5054040;28;20183;-48
2023/03/04 00:12:08;;;;;;;7.28;6.57;;;;;;;;;;5051747;28;20210;-47
2023/03/04 00:14:34;;;;;;;8.30;7.15;;;;;;;;;;5045727;28;20174;-48
2023/03/04 00:17:02;;;;;;;8.27;7.03;;;;;;;;;;5052407;28;20447;-48
2023/03/04 00:19:28;;;;;;;8.38;6.68;;;;;;;;;;5055079;28;20794;-46
2023/03/04 00:21:54;;;;;;;8.65;6.80;;;;;;;;;;5041321;28;20208;-47
2023/03/04 00:24:20;;;;;;;7.75;6.53;;;;;;;;;;5052955;28;20175;-48
2023/03/04 00:26:46;;;;;;;7.65;6.85;;;;;;;;;;5050747;28;20187;-48
2023/03/04 00:29:12;;;;;;;8.18;6.32;;;;;;;;;;5049451;28;20494;-48
2023/03/04 00:31:37;;;;;;;7.85;6.50;;;;;;;;;;5042307;28;20474;-48
2023/03/04 00:34:03;;;;;;;7.93;6.47;;;;;;;;;;5048444;28;20183;-48
2023/03/04 00:36:29;;;;;;;8.95;6.50;;;;;;;;;;5049228;28;20179;-47
2023/03/04 00:38:55;;;;;;;6.38;5.55;;;;;;;;;;5065695;28;20178;-48
2023/03/04 00:41:21;;;;;;;9.82;6.47;;;;;;;;;;5048944;28;20475;-48
2023/03/04 00:43:47;;;;;;;6.97;6.07;;;;;;;;;;5048346;28;20190;-48
2023/03/04 00:46:13;;;;;;;7.25;6.00;;;;;;;;;;5063963;28;20569;-48
2023/03/04 00:48:39;;;;;;;6.20;5.57;;;;;;;;;;5058055;28;20187;-47
2023/03/04 00:51:05;;;;;;;7.82;5.55;;;;;;;;;;5042196;28;20255;-47
2023/03/04 00:53:31;;;;;;;5.80;5.05;;;;;;;;;;5048456;28;20434;-48
2023/03/04 00:55:57;;;;;;;8.18;6.00;;;;;;;;;;5045831;28;20233;-48
2023/03/04 00:58:23;;;;;;;6.20;5.47;;;;;;;;;;5046563;28;20229;-47
2023/03/04 01:00:48;;;;;;;6.47;5.65;;;;;;;;;;5040250;28;20520;-48
2023/03/04 01:03:14;;;;;;;6.68;5.53;;;;;;;;;;5050747;28;20219;-48
2023/03/04 01:05:40;;;;;;;5.72;4.93;;;;;;;;;;5045500;28;20184;-47
2023/03/04 01:08:06;;;;;;;6.78;5.30;;;;;;;;;;5050681;28;20207;-47
2023/03/04 01:10:32;;;;;;;6.18;5.45;;;;;;;;;;5052818;28;20187;-48
2023/03/04 01:12:58;;;;;;;6.25;5.18;;;;;;;;;;5072366;28;20187;-48
2023/03/04 01:15:24;;;;;;;5.72;5.10;;;;;;;;;;5047456;28;20191;-48
2023/03/04 01:17:50;;;;;;;5.57;4.93;;;;;;;;;;5049220;28;20197;-48
2023/03/04 01:20:16;;;;;;;5.70;5.10;;;;;;;;;;5048242;28;20550;-48
2023/03/04 01:22:42;;;;;;;5.50;4.90;;;;;;;;;;5067518;28;20231;-48
2023/03/04 01:25:09;;;;;;;5.82;4.80;;;;;;;;;;5059814;28;20263;-48
2023/03/04 01:27:35;;;;;;;5.18;4.68;;;;;;;;;;5053499;28;20179;-47
2023/03/04 01:30:01;;;;;;;5.35;4.80;;;;;;;;;;5053638;28;20203;-47
2023/03/04 01:32:26;;;;;;;5.03;4.22;;;;;;;;;;5053914;28;20187;-48
2023/03/04 01:34:52;;;;;;;4.43;4.03;;;;;;;;;;5064957;28;20544;-48
2023/03/04 01:37:18;;;;;;;5.05;4.50;;;;;;;;;;5054987;28;20182;-48
2023/03/04 01:39:44;;;;;;;5.53;4.60;;;;;;;;;;5061286;28;20198;-48
2023/03/04 01:42:16;;;;;;;5.50;4.57;;;;;;;;;;5057975;28;20763;-47
2023/03/04 01:44:43;;;;;;;6.60;4.82;;;;;;;;;;5062389;28;20440;-47
2023/03/04 01:47:09;;;;;;;4.65;4.20;;;;;;;;;;5055176;28;20228;-48
2023/03/04 01:49:35;;;;;;;5.18;4.63;;;;;;;;;;5062849;28;20449;-48
2023/03/04 01:52:01;;;;;;;5.07;4.43;;;;;;;;;;5063685;28;20198;-48
2023/03/04 01:54:27;;;;;;;5.25;4.72;;;;;;;;;;5072646;28;20191;-47
2023/03/04 01:57:00;;;;;;;4.57;4.10;;;;;;;;;;5053145;28;20229;-47
2023/03/04 01:59:26;;;;;;;4.97;4.47;;;;;;;;;;5049110;28;20180;-47
2023/03/04 02:01:53;;;;;;;6.07;4.70;;;;;;;;;;5057665;28;20221;-47
2023/03/04 02:04:27;;;;;;;4.88;3.95;;;;;;;;;;5062364;28;20495;-47
2023/03/04 02:06:53;;;;;;;4.20;3.80;;;;;;;;;;5055128;28;20211;-47
2023/03/04 02:09:19;;;;;;;4.28;3.88;;;;;;;;;;5071423;28;20178;-47
2023/03/04 02:11:46;;;;;;;4.20;3.55;;;;;;;;;;5058428;28;20179;-47
2023/03/04 02:14:13;;;;;;;4.38;3.97;;;;;;;;;;5058980;28;20206;-47
2023/03/04 02:16:38;;;;;;;4.30;3.88;;;;;;;;;;5056734;28;20197;-45
2023/03/04 02:19:06;;;;;;;3.97;3.58;;;;;;;;;;5065843;28;20199;-45
2023/03/04 02:21:33;;;;;;;4.43;3.85;;;;;;;;;;5062888;28;20622;-45
2023/03/04 02:24:02;;;;;;;3.90;3.58;;;;;;;;;;5069953;28;20206;-45
2023/03/04 02:26:29;;;;;;;5.32;3.55;;;;;;;;;;5049243;28;20491;-45
2023/03/04 02:28:56;;;;;;;4.50;3.95;;;;;;;;;;5062926;28;20306;-45
2023/03/04 02:31:22;;;;;;;4.18;3.78;;;;;;;;;;5057452;28;20441;-45
2023/03/04 02:33:48;;;;;;;4.20;3.80;;;;;;;;;;5061671;28;20236;-45
2023/03/04 02:36:14;;;;;;;4.10;3.53;;;;;;;;;;5037617;28;20191;-45
2023/03/04 02:38:40;;;;;;;4.40;3.40;;;;;;;;;;5054879;28;20190;-45
2023/03/04 02:41:09;;;;;;;3.53;3.20;;;;;;;;;;5054583;28;20189;-45
2023/03/04 02:43:35;;;;;;;3.67;3.00;;;;;;;;;;5049854;28;20582;-47
2023/03/04 02:46:00;;;;;;;3.65;3.35;;;;;;;;;;5055712;28;20225;-47
2023/03/04 02:48:26;;;;;;;4.07;3.58;;;;;;;;;;5059248;28;20267;-47
2023/03/04 02:50:52;;;;;;;3.33;3.03;;;;;;;;;;5055724;28;20184;-47
2023/03/04 02:53:19;;;;;;;3.92;3.53;;;;;;;;;;5052470;28;20189;-47
2023/03/04 02:55:45;;;;;;;3.35;3.00;;;;;;;;;;5041209;28;20219;-47
2023/03/04 02:58:12;;;;;;;3.95;3.50;;;;;;;;;;5046186;28;20182;-47
2023/03/04 03:00:38;;;;;;;3.00;2.80;;;;;;;;;;5062863;28;20587;-47
2023/03/04 03:03:04;;;;;;;3.88;3.00;;;;;;;;;;5051668;28;20293;-47
2023/03/04 03:05:31;;;;;;;3.15;2.85;;;;;;;;;;5050707;28;20187;-47
2023/03/04 03:07:57;;;;;;;3.63;3.20;;;;;;;;;;5041702;28;20179;-45
2023/03/04 03:10:23;;;;;;;3.83;3.20;;;;;;;;;;5043749;28;20209;-45
2023/03/04 03:12:49;;;;;;;3.40;3.10;;;;;;;;;;5069712;28;20479;-45
2023/03/04 03:15:15;;;;;;;3.40;3.10;;;;;;;;;;5052161;28;20542;-45
2023/03/04 03:17:41;;;;;;;3.95;2.85;;;;;;;;;;5054617;28;20186;-45
2023/03/04 03:20:08;;;;;;;3.33;2.97;;;;;;;;;;5053568;28;20206;-45
2023/03/04 03:22:34;;;;;;;3.20;2.90;;;;;;;;;;5055107;28;20578;-45
2023/03/04 03:25:00;;;;;;;2.80;2.60;;;;;;;;;;5046371;28;20182;-45
2023/03/04 03:27:25;;;;;;;3.55;3.00;;;;;;;;;;5050501;28;20202;-45
2023/03/04 03:29:51;;;;;;;4.68;3.00;;;;;;;;;;5041720;28;20608;-45
2023/03/04 03:32:17;;;;;;;3.38;2.97;;;;;;;;;;5046859;28;20184;-45
2023/03/04 03:34:43;;;;;;;3.30;2.92;;;;;;;;;;5054016;28;20218;-45
2023/03/04 03:37:09;;;;;;;3.17;2.88;;;;;;;;;;5051914;28;20522;-45
2023/03/04 03:39:35;;;;;;;3.00;2.70;;;;;;;;;;5054098;28;20214;-44
2023/03/04 03:42:01;;;;;;;3.10;2.80;;;;;;;;;;5064840;28;20234;-46
2023/03/04 03:44:27;;;;;;;2.90;2.60;;;;;;;;;;5056833;28;20558;-46
2023/03/04 03:46:53;;;;;;;3.00;2.70;;;;;;;;;;5052810;28;20198;-45
2023/03/04 03:49:19;;;;;;;2.83;2.58;;;;;;;;;;5038345;28;20266;-46
2023/03/04 03:51:45;;;;;;;3.13;2.70;;;;;;;;;;5056418;28;20184;-45
2023/03/04 03:54:11;;;;;;;2.85;2.50;;;;;;;;;;5057908;28;20179;-46
2023/03/04 03:56:37;;;;;;;2.80;2.60;;;;;;;;;;5056785;28;20183;-45
2023/03/04 03:59:03;;;;;;;2.60;2.40;;;;;;;;;;5057477;28;20184;-45
2023/03/04 04:01:29;;;;;;;2.97;2.60;;;;;;;;;;5051945;28;20515;-45
2023/03/04 04:03:55;;;;;;;3.40;2.80;;;;;;;;;;5049054;28;20626;-45
2023/03/04 04:06:21;;;;;;;2.97;2.67;;;;;;;;;;5063301;28;20183;-45
2023/03/04 04:08:47;;;;;;;2.72;2.42;;;;;;;;;;5057565;28;20184;-45
2023/03/04 04:11:13;;;;;;;2.47;2.25;;;;;;;;;;5052163;28;20188;-45
2023/03/04 04:13:39;;;;;;;2.80;2.42;;;;;;;;;;5049631;28;20448;-45
2023/03/04 04:16:05;;;;;;;3.63;2.92;;;;;;;;;;5049967;28;20495;-45
2023/03/04 04:18:31;;;;;;;2.60;2.40;;;;;;;;;;5045597;28;20184;-45
2023/03/04 04:20:57;;;;;;;2.60;2.33;;;;;;;;;;5048296;28;20190;-45
2023/03/04 04:23:23;;;;;;;3.05;2.58;;;;;;;;;;5062419;28;20207;-46
2023/03/04 04:25:49;;;;;;;4.32;2.72;;;;;;;;;;5052721;28;20610;-45
2023/03/04 04:28:14;;;;;;;2.60;2.40;;;;;;;;;;5061236;28;20183;-45
2023/03/04 04:30:41;;;;;;;3.33;2.50;;;;;;;;;;5056216;28;20184;-45
2023/03/04 04:33:06;;;;;;;3.20;2.63;;;;;;;;;;5047292;28;20250;-45
2023/03/04 04:35:33;;;;;;;2.80;2.47;;;;;;;;;;5067588;28;20305;-45
2023/03/04 04:37:59;;;;;;;3.20;2.40;;;;;;;;;;5047212;28;20178;-45
2023/03/04 04:40:25;;;;;;;2.38;2.17;;;;;;;;;;5047657;28;20218;-45
2023/03/04 04:42:51;;;;;;;3.40;2.50;;;;;;;;;;5054835;28;20211;-46
2023/03/04 04:45:17;;;;;;;2.55;2.35;;;;;;;;;;5050744;28;20449;-46
2023/03/04 04:47:43;;;;;;;2.85;2.25;;;;;;;;;;5045758;28;20179;-46
2023/03/04 04:50:09;;;;;;;2.45;2.10;;;;;;;;;;5055739;28;20482;-46
2023/03/04 04:52:35;;;;;;;2.70;2.30;;;;;;;;;;5053161;28;20198;-46
2023/03/04 04:55:01;;;;;;;2.10;1.90;;;;;;;;;;5051657;28;20187;-46
2023/03/04 04:57:27;;;;;;;2.55;2.35;;;;;;;;;;5052251;28;20266;-46
2023/03/04 04:59:53;;;;;;;2.22;2.03;;;;;;;;;;5051912;28;20283;-46
2023/03/04 05:02:19;;;;;;;2.65;2.30;;;;;;;;;;5049506;28;20230;-46
2023/03/04 05:04:45;;;;;;;3.20;2.28;;;;;;;;;;5054324;28;20193;-46
2023/03/04 05:07:11;;;;;;;2.40;2.05;;;;;;;;;;5048019;28;20531;-46
2023/03/04 05:09:37;;;;;;;2.33;2.13;;;;;;;;;;5038396;28;20180;-46
2023/03/04 05:12:03;;;;;;;2.30;2.00;;;;;;;;;;5062898;28;20508;-45
2023/03/04 05:14:29;;;;;;;2.90;2.20;;;;;;;;;;5064619;28;20187;-46
2023/03/04 05:16:55;;;;;;;2.72;1.90;;;;;;;;;;5049723;28;20175;-46
2023/03/04 05:19:21;;;;;;;2.42;2.22;;;;;;;;;;5044452;28;20285;-46
2023/03/04 05:21:46;;;;;;;2.65;2.40;;;;;;;;;;5074814;28;20182;-46
2023/03/04 05:24:13;;;;;;;2.40;2.20;;;;;;;;;;5074115;28;20193;-45
2023/03/04 05:26:38;;;;;;;2.67;2.10;;;;;;;;;;5049795;28;20274;-46
2023/03/04 05:29:04;;;;;;;2.90;2.38;;;;;;;;;;5050237;28;20271;-46
2023/03/04 05:31:30;;;;;;;3.20;2.33;;;;;;;;;;5068197;28;20235;-46
2023/03/04 05:33:56;;;;;;;2.40;1.83;;;;;;;;;;5065194;28;20231;-46
2023/03/04 05:36:22;;;;;;;2.10;1.90;;;;;;;;;;5054998;28;20467;-46
2023/03/04 05:38:48;;;;;;;2.33;2.13;;;;;;;;;;5049601;28;20197;-46
2023/03/04 05:41:14;;;;;;;2.35;2.15;;;;;;;;;;5055033;28;20210;-46
2023/03/04 05:43:41;;;;;;;2.05;1.88;;;;;;;;;;5069421;28;20289;-46
2023/03/04 05:46:08;;;;;;;1.83;1.52;;;;;;;;;;5057699;28;20400;-46
2023/03/04 05:48:34;;;;;;;6.15;2.10;;;;;;;;;;5064518;28;20198;-46
2023/03/04 05:51:00;;;;;;;2.53;2.30;;;;;;;;;;5059955;28;20174;-46
2023/03/04 05:53:26;;;;;;;2.17;1.98;;;;;;;;;;5040891;28;20187;-46
2023/03/04 05:55:52;;;;;;;2.03;1.80;;;;;;;;;;5056910;28;20189;-47
2023/03/04 05:58:19;;;;;;;2.15;1.98;;;;;;;;;;5067243;28;20174;-46
2023/03/04 06:00:45;;;;;;;2.30;2.10;;;;;;;;;;5062618;28;20196;-46
2023/03/04 06:03:16;;;;;;;1.92;1.83;;;;;;;;;;5048282;28;20203;-46
2023/03/04 06:05:42;;;;;;;2.28;2.08;;;;;;;;;;5051461;28;20190;-46
2023/03/04 06:08:08;;;;;;;1.88;1.67;;;;;;;;;;5062444;28;20273;-46
2023/03/04 06:10:34;;;;;;;1.80;1.70;;;;;;;;;;5052062;28;20272;-46
2023/03/04 06:13:00;;;;;;;1.77;1.67;;;;;;;;;;5059012;28;20605;-46
2023/03/04 06:15:25;;;;;;;1.73;1.60;;;;;;;;;;5061033;28;20178;-46
2023/03/04 06:17:51;;;;;;;1.80;1.70;;;;;;;;;;5053042;28;20197;-46
2023/03/04 06:20:17;;;;;;;2.63;2.00;;;;;;;;;;5068254;28;20189;-46
2023/03/04 06:22:43;;;;;;;2.03;1.83;;;;;;;;;;5046556;28;20219;-46
2023/03/04 06:25:09;;;;;;;2.30;2.05;;;;;;;;;;5040743;28;20182;-46
2023/03/04 06:27:35;;;;;;;2.03;1.83;;;;;;;;;;5039139;28;20213;-46
2023/03/04 06:30:01;;;;;;;3.00;2.20;;;;;;;;;;5048391;28;20190;-46
2023/03/04 06:32:28;;;;;;;2.83;2.30;;;;;;;;;;5035517;28;20171;-46
2023/03/04 06:34:54;;;;;;;2.80;1.90;;;;;;;;;;5040537;28;20199;-46
2023/03/04 06:37:19;;;;;;;2.10;1.80;;;;;;;;;;5039902;28;20179;-46
2023/03/04 06:39:45;;;;;;;2.85;1.70;;;;;;;;;;5055556;28;20277;-46
2023/03/04 06:42:12;;;;;;;2.10;1.70;;;;;;;;;;5055022;28;20203;-46
2023/03/04 06:44:38;;;;;;;2.30;2.10;;;;;;;;;;5055688;28;20188;-46
2023/03/04 06:47:04;;;;;;;3.10;2.13;;;;;;;;;;5039393;28;20226;-46
2023/03/04 06:49:30;;;;;;;2.00;1.80;;;;;;;;;;5042099;28;20198;-46
2023/03/04 06:51:56;;;;;;;2.03;1.83;;;;;;;;;;5046032;28;20558;-46
2023/03/04 06:54:22;;;;;;;2.10;1.90;;;;;;;;;;5053410;28;20195;-47
2023/03/04 06:56:47;;;;;;;1.73;1.63;;;;;;;;;;5039162;28;20180;-46
2023/03/04 06:59:13;;;;;;;2.00;1.80;;;;;;;;;;5044222;28;20195;-47
2023/03/04 07:01:39;;;;;;;2.30;2.10;;;;;;;;;;5046212;28;20609;-46
2023/03/04 07:04:05;;;;;;;1.70;1.52;;;;;;;;;;5043935;28;20547;-46
2023/03/04 07:06:31;;;;;;;2.03;1.83;;;;;;;;;;5044238;28;20218;-46
2023/03/04 07:08:58;;;;;;;2.65;1.80;;;;;;;;;;5052396;28;20198;-46
2023/03/04 07:11:24;;;;;;;2.00;1.80;;;;;;;;;;5054152;28;20215;-47
2023/03/04 07:13:50;;;;;;;1.77;1.67;;;;;;;;;;5053325;28;20186;-46
2023/03/04 07:16:17;;;;;;;1.83;1.73;;;;;;;;;;5039854;28;20640;-46
2023/03/04 07:18:44;;;;;;;2.00;1.80;;;;;;;;;;5039710;28;20274;-46
2023/03/04 07:21:10;;;;;;;2.20;2.00;;;;;;;;;;5040539;28;20468;-47
2023/03/04 07:23:36;;;;;;;2.47;2.10;;;;;;;;;;5040597;28;20214;-46
2023/03/04 07:26:03;;;;;;;2.00;1.80;;;;;;;;;;5040948;28;20465;-46
2023/03/04 07:28:29;;;;;;;1.83;1.73;;;;;;;;;;5039829;28;20215;-46
2023/03/04 07:30:54;;;;;;;1.92;1.60;;;;;;;;;;5038438;28;20210;-46
2023/03/04 07:33:20;;;;;;;1.95;1.55;;;;;;;;;;5057016;28;20182;-46
2023/03/04 07:35:46;;;;;;;2.08;1.90;;;;;;;;;;5050268;28;20183;-46
2023/03/04 07:38:12;;;;;;;1.80;1.70;;;;;;;;;;5056731;28;20239;-46
2023/03/04 07:40:38;;;;;;;3.20;2.00;;;;;;;;;;5053986;28;20180;-46
2023/03/04 07:43:04;;;;;;;2.00;1.67;;;;;;;;;;5050917;28;20206;-46
2023/03/04 07:45:30;;;;;;;2.63;1.85;;;;;;;;;;5042305;28;20183;-46
2023/03/04 07:47:57;;;;;;;1.88;1.63;;;;;;;;;;5041234;28;20572;-46
2023/03/04 07:50:23;;;;;;;2.10;1.63;;;;;;;;;;5043232;28;20253;-46
2023/03/04 07:52:52;;;;;;;2.28;1.83;;;;;;;;;;5054063;28;20537;-46
2023/03/04 07:55:18;;;;;;;2.72;1.65;;;;;;;;;;5045827;28;20175;-46
2023/03/04 07:57:47;;;;;;;8.57;2.40;;;;;;;;;;5037718;28;20187;-46
2023/03/04 08:00:14;;;;;;;2.50;1.58;;;;;;;;;;5036513;28;20335;-46
2023/03/04 08:02:40;;;;;;;3.25;1.83;;;;;;;;;;5043356;28;20207;-46
2023/03/04 08:05:06;;;;;;;2.92;1.75;;;;;;;;;;5040705;28;20229;-46
2023/03/04 08:07:32;;;;;;;1.98;1.50;;;;;;;;;;5039098;28;20645;-46
2023/03/04 08:09:58;;;;;;;6.07;1.63;;;;;;;;;;5042955;28;20443;-46
2023/03/04 08:12:24;;;;;;;4.47;1.88;;;;;;;;;;5034738;28;20207;-45
2023/03/04 08:14:51;;;;;;;3.90;1.80;;;;;;;;;;5037741;28;20185;-46
2023/03/04 08:17:17;;;;;;;4.32;1.92;;;;;;;;;;5042242;28;20183;-46
2023/03/04 08:19:43;;;;;;;2.50;1.80;;;;;;;;;;5042049;28;20190;-46
2023/03/04 08:22:09;;;;;;;1.90;1.70;;;;;;;;;;5052616;28;20632;-46
2023/03/04 08:24:35;;;;;;;3.10;1.90;;;;;;;;;;5045139;28;20200;-46
2023/03/04 08:27:01;;;;;;;3.30;1.27;;;;;;;;;;5039911;28;20795;-45
2023/03/04 08:29:27;;;;;;;6.50;1.83;;;;;;;;;;5045864;28;20192;-46
2023/03/04 08:31:54;;;;;;;2.25;1.67;;;;;;;;;;5044641;28;20263;-46
2023/03/04 08:34:20;;;;;;;4.57;1.83;;;;;;;;;;5052121;28;20187;-45
2023/03/04 08:36:46;;;;;;;2.40;1.80;;;;;;;;;;5051261;28;20195;-45
2023/03/04 08:39:13;;;;;;;2.65;1.77;;;;;;;;;;5045115;28;21029;-45
2023/03/04 08:41:39;;;;;;;6.20;1.90;;;;;;;;;;5048765;28;20183;-45
2023/03/04 08:44:07;;;;;;;4.72;1.80;;;;;;;;;;5047276;28;20225;-45
2023/03/04 08:46:33;;;;;;;5.78;2.00;;;;;;;;;;5039324;28;20175;-45
2023/03/04 08:48:58;;;;;;;6.80;2.22;;;;;;;;;;5056223;28;20194;-45
2023/03/04 08:51:24;;;;;;;8.82;2.10;;;;;;;;;;5044419;28;20180;-45
2023/03/04 08:53:50;;;;;;;5.85;2.10;;;;;;;;;;5041683;28;20574;-45
2023/03/04 08:56:16;;;;;;;5.97;2.42;;;;;;;;;;5037173;28;20183;-45
2023/03/04 08:58:42;;;;;;;4.70;1.90;;;;;;;;;;5046374;28;20564;-45
2023/03/04 09:01:09;;;;;;;5.32;2.53;;;;;;;;;;5045431;28;20187;-46
2023/03/04 09:03:35;;;;;;;5.20;2.35;;;;;;;;;;5042624;28;20211;-46
2023/03/04 09:06:02;;;;;;;4.32;2.15;;;;;;;;;;5045634;28;20190;-45
2023/03/04 09:08:28;;;;;;;6.93;2.30;;;;;;;;;;5045194;28;20181;-44
2023/03/04 09:10:54;;;;;;;2.97;2.17;;;;;;;;;;5047263;28;20500;-45
2023/03/04 09:13:21;;;;;;;4.22;2.00;;;;;;;;;;5057213;28;20193;-45
2023/03/04 09:15:49;;;;;;;6.57;2.45;;;;;;;;;;5040764;28;20236;-45
2023/03/04 09:18:15;;;;;;;8.00;2.03;;;;;;;;;;5045504;28;20507;-45
2023/03/04 09:20:41;;;;;;;4.15;1.70;;;;;;;;;;5039025;28;20249;-45
2023/03/04 09:23:08;;;;;;;5.78;2.13;;;;;;;;;;5041319;28;20211;-45
2023/03/04 09:25:34;;;;;;;3.08;1.77;;;;;;;;;;5042836;28;20183;-45
2023/03/04 09:28:00;;;;;;;5.43;1.92;;;;;;;;;;5043654;28;20175;-45
2023/03/04 09:30:26;;;;;;;5.50;2.08;;;;;;;;;;5036305;28;20298;-45
2023/03/04 09:32:51;;;;;;;4.85;1.60;;;;;;;;;;5044357;28;20510;-46
2023/03/04 09:35:18;;;;;;;4.82;1.80;;;;;;;;;;5056093;28;20210;-45
2023/03/04 09:37:45;;;;;;;6.03;1.90;;;;;;;;;;5045434;28;20175;-45
2023/03/04 09:40:16;;;;;;;3.55;1.77;;;;;;;;;;5050344;28;20221;-45
2023/03/04 09:42:52;;;;;;;7.18;1.95;;;;;;;;;;5044783;28;20290;-44
2023/03/04 09:45:22;;;;;;;6.22;1.77;;;;;;;;;;5041865;28;20176;-45
2023/03/04 09:47:50;;;;;;;4.35;1.60;;;;;;;;;;5047438;28;20184;-45
2023/03/04 09:50:16;;;;;;;7.97;1.98;;;;;;;;;;5059061;28;20544;-45
2023/03/04 09:53:00;;;;;;;4.00;1.75;;;;;;;;;;5035550;28;20230;-45
2023/03/04 09:55:34;;;;;;;3.53;1.50;;;;;;;;;;5044700;28;20449;-45
2023/03/04 09:58:00;;;;;;;3.20;1.60;;;;;;;;;;5040009;28;20234;-45
2023/03/04 10:00:38;;;;;;;10.27;2.70;;;;;;;;;;5039761;28;22044;-44
2023/03/04 10:03:10;;;;;;;4.55;1.58;;;;;;;;;;5036083;28;20668;-45
2023/03/04 10:05:51;;;;;;;8.35;1.67;;;;;;;;;;5043116;28;20415;-45
2023/03/04 10:08:32;;;;;;;5.85;1.58;;;;;;;;;;5040958;28;20554;-45
2023/03/04 10:10:59;;;;;;;3.63;1.50;;;;;;;;;;5044840;28;20187;-45
2023/03/04 10:13:45;;;;;;;3.88;2.03;;;;;;;;;;5038909;28;20194;-45
2023/03/04 10:16:12;;;;;;;4.68;1.58;;;;;;;;;;5035148;28;20518;-45
2023/03/04 10:18:40;;;;;;;10.85;2.28;;;;;;;;;;5046636;28;20187;-45
2023/03/04 10:21:42;;;;;;;10.77;2.25;;;;;;;;;;5041599;28;20204;-45
2023/03/04 10:24:13;;;;;;;6.45;2.03;;;;;;;;;;5027729;28;20222;-45
2023/03/04 10:26:42;;;;;;;11.90;2.03;;;;;;;;;;5043520;28;20578;-45
2023/03/04 10:29:13;;;;;;;7.47;2.40;;;;;;;;;;5046083;28;20247;-45
2023/03/04 10:31:40;;;;;;;5.35;1.73;;;;;;;;;;5046669;28;20271;-45
2023/03/04 10:34:06;;;;;;;6.15;1.98;;;;;;;;;;5045557;28;20241;-45
2023/03/04 10:36:51;;;;;;;6.85;1.50;;;;;;;;;;5041879;28;20184;-45
2023/03/04 10:39:20;;;;;;;3.42;1.80;;;;;;;;;;5042425;28;20222;-45
2023/03/04 10:41:54;;;;;;;4.13;1.83;;;;;;;;;;5043438;28;20229;-45
2023/03/04 10:44:20;;;;;;;6.05;1.58;;;;;;;;;;5044804;28;20175;-45
2023/03/04 10:46:47;;;;;;;5.10;1.60;;;;;;;;;;5041606;28;20597;-45
2023/03/04 10:49:15;;;;;;;6.22;2.10;;;;;;;;;;5039263;28;20179;-45
2023/03/04 10:51:43;;;;;;;5.05;1.70;;;;;;;;;;5042716;28;20506;-45
2023/03/04 10:54:10;;;;;;;4.15;1.58;;;;;;;;;;5043944;28;20180;-45
2023/03/04 10:56:44;;;;;;;1.88;1.35;;;;;;;;;;5040865;28;20191;-45
2023/03/04 10:59:29;;;;;;;3.65;1.60;;;;;;;;;;5048342;28;20267;-45
2023/03/04 11:01:56;;;;;;;6.80;1.92;;;;;;;;;;5054617;28;20278;-45
2023/03/04 11:04:24;;;;;;;4.40;1.70;;;;;;;;;;5044653;28;20185;-45
2023/03/04 11:06:50;;;;;;;5.38;1.70;;;;;;;;;;5041234;28;20533;-45
2023/03/04 11:09:31;;;;;;;5.05;1.85;;;;;;;;;;5049152;28;20171;-45
2023/03/04 11:12:02;;;;;;;39.63;9.13;;;;;;;;;;5050710;28;20190;-45
2023/03/04 11:14:34;;;;;;;49.95;14.75;;;;;;;;;;5047745;28;20768;-45
2023/03/04 11:17:16;;;;;;;64.88;16.33;;;;;;;;;;5050490;28;20187;-45
2023/03/04 11:19:43;;;;;;;74.88;19.90;;;;;;;;;;5046474;28;20558;-45
2023/03/04 11:22:13;;;;;;;67.38;18.65;;;;;;;;;;5071843;28;20214;-45
2023/03/04 11:24:38;;;;;;;59.47;15.98;;;;;;;;;;5052009;28;20451;-45
2023/03/04 11:27:06;;;;;;;49.47;14.35;;;;;;;;;;5063480;28;20212;-45
2023/03/04 11:29:41;;;;;;;43.75;12.32;;;;;;;;;;5061565;28;20199;-45
2023/03/04 11:32:14;;;;;;;33.75;9.85;;;;;;;;;;5059318;28;20188;-45
2023/03/04 11:35:01;;;;;;;34.05;9.95;;;;;;;;;;5049313;28;20237;-45
2023/03/04 11:37:36;;;;;;;23.42;8.70;;;;;;;;;;5041697;28;20194;-45
2023/03/04 11:40:04;;;;;;;23.08;8.23;;;;;;;;;;5049064;28;20263;-45
2023/03/04 11:42:33;;;;;;;18.75;6.90;;;;;;;;;;5042490;28;20301;-45
2023/03/04 11:44:59;;;;;;;22.58;7.82;;;;;;;;;;5040362;28;20182;-45
2023/03/04 11:47:37;;;;;;;20.17;7.03;;;;;;;;;;5048184;28;20182;-45
2023/03/04 11:50:19;;;;;;;22.75;7.22;;;;;;;;;;5041722;28;20189;-45
2023/03/04 11:52:52;;;;;;;23.13;7.85;;;;;;;;;;5040310;28;20621;-45
2023/03/04 11:55:25;;;;;;;25.92;7.20;;;;;;;;;;5043273;28;20220;-45
2023/03/04 11:57:57;;;;;;;25.75;7.28;;;;;;;;;;5040764;28;20182;-45
2023/03/04 12:00:34;;;;;;;22.08;6.53;;;;;;;;;;5037667;28;20202;-45
2023/03/04 12:03:06;;;;;;;20.70;5.97;;;;;;;;;;5038592;28;20245;-45
2023/03/04 12:05:35;;;;;;;15.57;5.35;;;;;;;;;;5042009;28;20579;-45
2023/03/04 12:08:20;;;;;;;17.42;6.43;;;;;;;;;;5041853;28;20526;-45
2023/03/04 12:10:55;;;;;;;25.58;8.70;;;;;;;;;;5038022;28;20257;-45
2023/03/04 12:13:35;;;;;;;36.60;15.98;;;;;;;;;;5051191;28;20190;-45
2023/03/04 12:16:14;;;;;;;52.40;19.92;;;;;;;;;;5036028;28;20179;-44
2023/03/04 12:18:47;;;;;;;47.63;21.77;;;;;;;;;;5037475;28;20562;-45
2023/03/04 12:21:16;;;;;;;105.07;41.45;;;;;;;;;;5037704;28;20197;-45
2023/03/04 12:23:42;;;;;;;137.60;55.15;;;;;;;;;;5041918;28;20248;-45
2023/03/04 12:26:21;;;;;;;113.55;48.40;;;;;;;;;;5048014;28;20271;-45
2023/03/04 12:28:56;;;;;;;74.35;34.95;;;;;;;;;;5039532;28;20469;-45
2023/03/04 12:31:29;;;;;;;58.65;25.90;;;;;;;;;;5042099;28;20174;-45
2023/03/04 12:34:05;;;;;;;50.97;20.13;;;;;;;;;;5048244;28;20222;-44
2023/03/04 12:36:37;;;;;;;44.55;17.55;;;;;;;;;;5044022;28;20186;-44
2023/03/04 12:39:21;;;;;;;40.90;16.27;;;;;;;;;;5042017;28;20175;-44
2023/03/04 12:41:51;;;;;;;37.72;15.15;;;;;;;;;;5041701;28;20188;-45
2023/03/04 12:44:18;;;;;;;30.83;13.65;;;;;;;;;;5058566;28;20184;-45
2023/03/04 12:47:10;;;;;;;34.00;13.43;;;;;;;;;;5045741;28;20290;-45
2023/03/04 12:49:36;;;;;;;31.48;12.55;;;;;;;;;;5049826;28;20190;-45
2023/03/04 12:52:07;;;;;;;35.40;12.85;;;;;;;;;;5047418;28;20175;-44
2023/03/04 12:54:39;;;;;;;33.80;11.85;;;;;;;;;;5043865;28;20219;-45
2023/03/04 12:57:14;;;;;;;24.98;10.75;;;;;;;;;;5048260;28;20566;-45
2023/03/04 12:59:44;;;;;;;30.23;11.25;;;;;;;;;;5049880;28;20196;-45
2023/03/04 13:02:13;;;;;;;27.90;10.20;;;;;;;;;;5045687;28;20688;-45
2023/03/04 13:04:57;;;;;;;23.40;9.93;;;;;;;;;;5040250;28;20191;-45
2023/03/04 13:07:29;;;;;;;27.88;10.30;;;;;;;;;;5049654;28;20248;-45
2023/03/04 13:10:04;;;;;;;27.52;10.07;;;;;;;;;;5041041;28;20190;-45
2023/03/04 13:12:45;;;;;;;24.10;9.23;;;;;;;;;;5052745;28;20477;-45
2023/03/04 13:15:11;;;;;;;26.65;9.25;;;;;;;;;;5055351;28;20726;-45
2023/03/04 13:17:39;;;;;;;19.08;8.25;;;;;;;;;;5039782;28;20190;-45
2023/03/04 13:20:23;;;;;;;18.65;7.78;;;;;;;;;;5050520;28;20218;-45
2023/03/04 13:22:52;;;;;;;22.73;8.35;;;;;;;;;;5059049;28;20216;-45
2023/03/04 13:25:28;;;;;;;18.95;8.23;;;;;;;;;;5057619;28;20185;-45
2023/03/04 13:28:01;;;;;;;22.83;8.18;;;;;;;;;;5051563;28;20184;-45
2023/03/04 13:30:47;;;;;;;22.02;7.82;;;;;;;;;;5054734;28;20190;-45
2023/03/04 13:33:13;;;;;;;18.38;7.72;;;;;;;;;;5044690;28;20281;-45
2023/03/04 13:35:48;;;;;;;17.67;7.18;;;;;;;;;;5052751;28;20222;-45
2023/03/04 13:38:26;;;;;;;19.08;7.10;;;;;;;;;;5053738;28;20194;-45
2023/03/04 13:41:05;;;;;;;17.30;6.90;;;;;;;;;;5057569;28;20668;-44
2023/03/04 13:43:41;;;;;;;16.98;7.32;;;;;;;;;;5043214;28;20203;-45
2023/03/04 13:46:19;;;;;;;18.00;7.07;;;;;;;;;;5040989;28;20176;-45
2023/03/04 13:48:59;;;;;;;15.88;6.90;;;;;;;;;;5051876;28;20229;-45
2023/03/04 13:51:36;;;;;;;15.60;6.80;;;;;;;;;;5040652;28;20190;-45
2023/03/04 13:54:03;;;;;;;14.25;6.47;;;;;;;;;;5046946;28;20206;-45
2023/03/04 13:56:33;;;;;;;13.18;6.13;;;;;;;;;;5046527;28;20276;-45
2023/03/04 13:59:08;;;;;;;18.45;6.72;;;;;;;;;;5044658;28;20218;-45
2023/03/04 14:01:37;;;;;;;17.08;5.95;;;;;;;;;;5043773;28;20214;-45
2023/03/04 14:04:10;;;;;;;13.63;6.05;;;;;;;;;;5047752;28;20754;-45
2023/03/04 14:06:41;;;;;;;15.30;6.07;;;;;;;;;;5042670;28;20184;-45
2023/03/04 14:09:19;;;;;;;15.30;6.30;;;;;;;;;;5049711;28;20179;-45
2023/03/04 14:11:46;;;;;;;15.98;6.60;;;;;;;;;;5046099;28;20176;-45
2023/03/04 14:14:18;;;;;;;12.93;5.30;;;;;;;;;;5039804;28;20221;-44
2023/03/04 14:16:51;;;;;;;13.57;5.35;;;;;;;;;;5049600;28;20273;-45
2023/03/04 14:19:24;;;;;;;14.73;5.65;;;;;;;;;;5045980;28;20193;-45
2023/03/04 14:21:50;;;;;;;15.65;5.63;;;;;;;;;;5041014;28;20691;-45
2023/03/04 14:24:17;;;;;;;14.35;5.45;;;;;;;;;;5044008;28;20207;-45
2023/03/04 14:26:43;;;;;;;14.20;5.43;;;;;;;;;;5044161;28;20183;-45
2023/03/04 14:29:20;;;;;;;14.80;5.28;;;;;;;;;;5042054;28;20201;-45
2023/03/04 14:31:46;;;;;;;13.13;4.88;;;;;;;;;;5041724;28;20171;-45
2023/03/04 14:34:16;;;;;;;16.75;5.63;;;;;;;;;;5044036;28;20201;-45
2023/03/04 14:36:43;;;;;;;10.90;4.55;;;;;;;;;;5036324;28;20198;-45
2023/03/04 14:39:14;;;;;;;9.90;4.80;;;;;;;;;;5043128;28;20278;-45
2023/03/04 14:41:42;;;;;;;9.90;4.40;;;;;;;;;;5046095;28;20239;-45
2023/03/04 14:44:13;;;;;;;8.85;4.40;;;;;;;;;;5047542;28;20248;-44
2023/03/04 14:46:41;;;;;;;11.60;4.10;;;;;;;;;;5047204;28;20208;-45